Time;durP1;ratioP1;P1;durP2;ratioP2;P2;SDS_P1;SDS_P2;PMS_P1;PMS_P2;Temp;Humidity;BMP_temperature;BMP_pressure;BME280_temperature;BME280_humidity;BME280_pressure;Samples;Min_cycle;Max_cycle;Signal;HPM_P1;HPM_P2
2021/08/26 00:01:18;;;;;;;14.27;9.43;;;17.10;99.90;;;;;;5033627;28;20048;-59
2021/08/26 00:06:27;;;;;;;11.27;7.55;;;17.00;99.90;;;;;;5033850;28;20034;-59
2021/08/26 00:08:56;;;;;;;10.13;7.18;;;17.00;99.90;;;;;;5033862;28;20034;-59
2021/08/26 00:11:24;;;;;;;14.55;7.05;;;17.00;99.90;;;;;;5033554;28;20026;-59
2021/08/26 00:13:52;;;;;;;11.57;7.25;;;17.00;99.90;;;;;;5033907;28;20044;-59
2021/08/26 00:16:20;;;;;;;13.48;7.57;;;17.00;99.90;;;;;;5032135;28;20044;-59
2021/08/26 00:18:46;;;;;;;13.43;7.70;;;17.10;99.90;;;;;;5033382;28;20501;-59
2021/08/26 00:21:13;;;;;;;11.95;7.15;;;17.10;99.90;;;;;;5033342;28;20109;-59
2021/08/26 00:23:39;;;;;;;9.90;7.25;;;17.20;99.90;;;;;;5033499;28;20020;-59
2021/08/26 00:26:04;;;;;;;17.17;7.20;;;17.20;99.90;;;;;;5033317;28;20030;-59
2021/08/26 00:28:30;;;;;;;14.05;7.38;;;17.30;99.90;;;;;;5031910;28;20036;-59
2021/08/26 00:30:55;;;;;;;12.35;7.22;;;17.20;99.90;;;;;;5033083;28;20037;-58
2021/08/26 00:33:21;;;;;;;11.27;6.38;;;17.30;99.90;;;;;;5033240;28;20382;-59
2021/08/26 00:35:47;;;;;;;13.95;6.65;;;17.30;99.90;;;;;;5032939;28;20054;-60
2021/08/26 00:38:12;;;;;;;10.93;6.95;;;17.40;99.90;;;;;;5033191;28;20367;-59
2021/08/26 00:40:38;;;;;;;10.50;7.50;;;17.20;99.90;;;;;;5033010;28;20021;-59
2021/08/26 00:43:04;;;;;;;12.23;6.75;;;17.30;99.90;;;;;;5031854;28;20017;-59
2021/08/26 00:45:29;;;;;;;8.90;6.80;;;17.20;99.90;;;;;;5032999;28;20482;-59
2021/08/26 00:47:56;;;;;;;10.45;6.97;;;17.10;99.90;;;;;;5032904;28;20037;-59
2021/08/26 00:50:25;;;;;;;13.25;6.78;;;17.20;99.90;;;;;;5032873;28;20589;-59
2021/08/26 00:52:53;;;;;;;10.63;6.88;;;17.20;99.90;;;;;;5032742;28;20025;-59
2021/08/26 00:55:18;;;;;;;11.65;6.57;;;17.20;99.90;;;;;;5031460;28;20033;-59
2021/08/26 00:57:44;;;;;;;12.13;6.65;;;17.20;99.90;;;;;;5032609;28;20036;-59
2021/08/26 01:00:12;;;;;;;10.85;6.50;;;17.30;99.90;;;;;;5032705;28;20026;-59
2021/08/26 01:03:03;;;;;;;10.05;5.97;;;17.30;99.90;;;;;;5032753;28;20028;-59
2021/08/26 01:05:34;;;;;;;12.07;6.35;;;17.30;99.90;;;;;;5032631;28;20105;-59
2021/08/26 01:08:11;;;;;;;11.68;6.35;;;17.30;99.90;;;;;;5032527;28;20032;-59
2021/08/26 01:10:39;;;;;;;14.80;6.43;;;17.30;99.90;;;;;;5032347;28;20030;-59
2021/08/26 01:13:08;;;;;;;8.85;6.20;;;17.30;99.90;;;;;;5032396;28;20032;-58
2021/08/26 01:15:33;;;;;;;9.85;6.35;;;17.30;99.90;;;;;;5031619;28;20037;-58
2021/08/26 01:17:59;;;;;;;11.50;6.47;;;17.20;99.90;;;;;;5032257;28;20033;-59
2021/08/26 01:20:25;;;;;;;9.98;6.22;;;17.20;99.90;;;;;;5031030;28;20425;-59
2021/08/26 01:22:51;;;;;;;11.75;6.05;;;17.20;99.90;;;;;;5032304;28;20045;-59
2021/08/26 01:25:19;;;;;;;11.80;6.35;;;17.20;99.90;;;;;;5032279;28;20025;-59
2021/08/26 01:27:58;;;;;;;12.52;6.25;;;17.20;99.90;;;;;;5032262;28;20151;-59
2021/08/26 01:30:26;;;;;;;18.98;7.07;;;17.20;99.90;;;;;;5030859;28;20528;-59
2021/08/26 01:32:54;;;;;;;14.38;6.72;;;17.30;99.90;;;;;;5032148;28;20392;-59
2021/08/26 01:35:25;;;;;;;11.45;6.47;;;17.30;99.90;;;;;;5031735;28;20057;-59
2021/08/26 01:37:52;;;;;;;12.63;6.97;;;17.40;99.90;;;;;;5032067;28;20041;-59
2021/08/26 01:40:34;;;;;;;12.80;7.90;;;17.30;99.90;;;;;;5030874;28;20025;-59
2021/08/26 01:43:06;;;;;;;12.23;7.82;;;17.30;99.90;;;;;;5031970;28;20029;-59
2021/08/26 01:45:32;;;;;;;12.02;7.63;;;17.30;99.90;;;;;;5032156;28;20401;-59
2021/08/26 01:47:58;;;;;;;12.02;7.57;;;17.30;99.90;;;;;;5031967;28;20030;-58
2021/08/26 01:50:23;;;;;;;13.60;7.60;;;17.30;99.90;;;;;;5031885;28;20053;-59
2021/08/26 01:52:49;;;;;;;15.70;8.32;;;17.30;99.90;;;;;;5031912;28;20021;-58
2021/08/26 01:55:14;;;;;;;18.85;8.77;;;17.30;99.90;;;;;;5031783;28;20359;-59
2021/08/26 01:57:40;;;;;;;10.50;8.73;;;17.30;99.90;;;;;;5031762;28;20081;-59
2021/08/26 02:00:07;;;;;;;14.52;8.80;;;17.20;99.90;;;;;;5031813;28;20027;-59
2021/08/26 02:02:34;;;;;;;11.60;7.95;;;17.20;99.90;;;;;;5031668;28;20026;-59
2021/08/26 02:04:59;;;;;;;10.25;7.95;;;17.10;99.90;;;;;;5031860;28;20401;-58
2021/08/26 02:07:25;;;;;;;11.80;7.90;;;17.10;99.90;;;;;;5031693;28;20021;-58
2021/08/26 02:09:50;;;;;;;10.70;7.22;;;17.00;99.90;;;;;;5031610;28;20109;-59
2021/08/26 02:12:16;;;;;;;10.48;7.00;;;16.90;99.90;;;;;;5031829;28;20535;-61
2021/08/26 02:14:42;;;;;;;9.88;7.07;;;16.90;99.90;;;;;;5031906;28;20033;-61
2021/08/26 02:17:08;;;;;;;9.85;7.15;;;17.00;99.90;;;;;;5031545;28;20475;-61
2021/08/26 02:19:34;;;;;;;8.05;7.15;;;16.90;99.90;;;;;;5030462;28;20271;-61
2021/08/26 02:21:59;;;;;;;8.90;7.43;;;16.90;99.90;;;;;;5031549;28;20026;-60
2021/08/26 02:24:25;;;;;;;8.65;6.95;;;17.00;99.90;;;;;;5031530;28;20104;-60
2021/08/26 02:26:51;;;;;;;9.05;7.40;;;17.00;99.90;;;;;;5034231;28;20033;-60
2021/08/26 02:29:16;;;;;;;10.57;7.70;;;17.00;99.90;;;;;;5035532;28;20097;-60
2021/08/26 02:31:42;;;;;;;9.63;7.13;;;17.00;99.90;;;;;;5035277;28;20026;-60
2021/08/26 02:34:07;;;;;;;10.70;7.07;;;17.00;99.90;;;;;;5035394;28;20425;-60
2021/08/26 02:36:33;;;;;;;8.75;7.22;;;17.00;99.90;;;;;;5035094;28;20107;-59
2021/08/26 02:38:59;;;;;;;9.13;7.38;;;17.00;99.90;;;;;;5035126;28;20091;-60
2021/08/26 02:41:25;;;;;;;10.02;7.50;;;17.00;99.90;;;;;;5035245;28;20586;-59
2021/08/26 02:43:50;;;;;;;9.77;7.07;;;17.10;99.90;;;;;;5035261;28;20033;-60
2021/08/26 02:46:16;;;;;;;8.40;7.05;;;17.10;99.90;;;;;;5035240;28;20037;-59
2021/08/26 02:48:42;;;;;;;9.90;7.63;;;17.00;99.90;;;;;;5035158;28;20033;-59
2021/08/26 02:51:08;;;;;;;9.55;7.78;;;17.10;99.90;;;;;;5035088;28;20080;-60
2021/08/26 02:53:34;;;;;;;9.02;7.57;;;17.10;99.90;;;;;;5033695;28;20045;-60
2021/08/26 02:55:59;;;;;;;9.90;7.88;;;17.10;99.90;;;;;;5035065;28;20029;-60
2021/08/26 02:58:26;;;;;;;9.18;7.63;;;17.10;99.90;;;;;;5034907;28;20512;-59
2021/08/26 03:00:51;;;;;;;10.90;8.10;;;17.20;99.90;;;;;;5033545;28;20363;-66
2021/08/26 03:03:17;;;;;;;11.80;8.10;;;17.20;99.90;;;;;;5034830;28;20029;-60
2021/08/26 03:05:43;;;;;;;8.85;7.82;;;17.10;99.90;;;;;;5034935;28;20021;-59
2021/08/26 03:08:08;;;;;;;9.73;8.07;;;17.00;99.90;;;;;;5034797;28;20127;-60
2021/08/26 03:10:34;;;;;;;9.45;7.45;;;17.10;99.90;;;;;;5034578;28;20475;-60
2021/08/26 03:13:00;;;;;;;8.55;7.65;;;17.10;99.90;;;;;;5034658;28;20032;-62
2021/08/26 03:15:26;;;;;;;9.50;6.95;;;17.00;99.90;;;;;;5034571;28;20029;-63
2021/08/26 03:17:52;;;;;;;8.57;7.60;;;17.00;99.90;;;;;;5034520;28;20436;-63
2021/08/26 03:20:20;;;;;;;7.70;6.82;;;17.00;99.90;;;;;;5034480;28;20029;-63
2021/08/26 03:22:47;;;;;;;8.93;7.13;;;17.00;99.90;;;;;;5034437;28;20028;-63
2021/08/26 03:25:13;;;;;;;6.75;6.10;;;17.00;99.90;;;;;;5034386;28;20052;-66
2021/08/26 03:27:38;;;;;;;8.40;6.63;;;17.10;99.90;;;;;;5034373;28;20491;-66
2021/08/26 03:30:05;;;;;;;8.85;6.97;;;17.10;99.90;;;;;;5032970;28;20025;-67
2021/08/26 03:32:30;;;;;;;6.18;5.63;;;17.10;99.90;;;;;;5034370;28;20030;-66
2021/08/26 03:34:56;;;;;;;5.55;5.05;;;17.00;99.90;;;;;;5034167;28;20041;-66
2021/08/26 03:37:22;;;;;;;5.93;4.50;;;17.00;99.90;;;;;;5033225;28;20104;-65
2021/08/26 03:39:47;;;;;;;4.95;4.45;;;17.00;99.90;;;;;;5034649;28;20140;-65
2021/08/26 03:42:13;;;;;;;4.68;4.28;;;16.90;99.90;;;;;;5034110;28;20560;-67
2021/08/26 03:44:38;;;;;;;3.30;3.00;;;16.90;99.90;;;;;;5032912;28;20017;-67
2021/08/26 03:47:04;;;;;;;4.55;2.10;;;16.80;99.90;;;;;;5033978;28;20025;-66
2021/08/26 03:49:30;;;;;;;2.88;1.83;;;16.70;99.90;;;;;;5034045;28;20029;-66
2021/08/26 03:51:56;;;;;;;4.05;1.90;;;16.60;99.90;;;;;;5032704;28;20041;-67
2021/08/26 03:54:22;;;;;;;3.08;2.20;;;16.50;99.90;;;;;;5033918;28;20432;-67
2021/08/26 03:56:48;;;;;;;6.13;1.98;;;16.50;99.90;;;;;;5033788;28;20029;-66
2021/08/26 03:59:14;;;;;;;4.05;1.90;;;16.50;99.90;;;;;;5034117;28;20486;-65
2021/08/26 04:01:40;;;;;;;7.97;2.13;;;16.40;99.90;;;;;;5033707;28;20030;-64
2021/08/26 04:04:06;;;;;;;4.90;2.00;;;16.40;99.90;;;;;;5033840;28;20032;-63
2021/08/26 04:06:31;;;;;;;5.35;1.90;;;16.40;99.90;;;;;;5033587;28;20022;-63
2021/08/26 04:08:57;;;;;;;3.58;1.88;;;16.40;99.90;;;;;;5032274;28;20034;-62
2021/08/26 04:11:23;;;;;;;5.88;2.10;;;16.50;99.90;;;;;;5033688;28;20029;-61
2021/08/26 04:13:48;;;;;;;4.75;2.10;;;16.50;99.90;;;;;;5032311;28;20067;-61
2021/08/26 04:16:14;;;;;;;6.10;2.35;;;16.50;99.90;;;;;;5033648;28;20038;-61
2021/08/26 04:18:39;;;;;;;4.88;2.55;;;16.60;99.90;;;;;;5033294;28;20037;-60
2021/08/26 04:21:05;;;;;;;5.68;2.30;;;16.60;99.90;;;;;;5033318;28;20032;-60
2021/08/26 04:23:31;;;;;;;4.50;2.20;;;16.60;99.90;;;;;;5033350;28;20032;-60
2021/08/26 04:25:56;;;;;;;5.60;2.20;;;16.60;99.90;;;;;;5032087;28;20021;-60
2021/08/26 04:28:22;;;;;;;6.55;1.90;;;16.60;99.90;;;;;;5033181;28;20029;-60
2021/08/26 04:30:48;;;;;;;4.97;2.10;;;16.60;99.90;;;;;;5033258;28;20034;-60
2021/08/26 04:33:13;;;;;;;5.35;2.53;;;16.60;99.90;;;;;;5033179;28;20037;-59
2021/08/26 04:35:39;;;;;;;7.18;2.95;;;16.60;99.90;;;;;;5033047;28;20041;-59
2021/08/26 04:38:04;;;;;;;5.35;2.25;;;16.60;99.90;;;;;;5033010;28;20034;-59
2021/08/26 04:40:30;;;;;;;9.00;2.60;;;16.60;99.90;;;;;;5033026;28;20053;-59
2021/08/26 04:42:56;;;;;;;6.45;2.40;;;16.60;99.90;;;;;;5032795;28;20022;-59
2021/08/26 04:45:21;;;;;;;8.32;2.83;;;16.60;99.90;;;;;;5032837;28;20026;-59
2021/08/26 04:47:47;;;;;;;11.55;2.90;;;16.60;99.90;;;;;;5032818;28;20378;-59
2021/08/26 04:50:13;;;;;;;9.25;3.10;;;16.60;99.90;;;;;;5032720;28;20025;-59
2021/08/26 04:52:38;;;;;;;8.52;3.30;;;16.40;99.90;;;;;;5032750;28;20036;-59
2021/08/26 04:55:04;;;;;;;12.60;3.90;;;16.40;99.90;;;;;;5032673;28;20222;-59
2021/08/26 04:57:30;;;;;;;10.55;3.10;;;16.30;99.90;;;;;;5032460;28;20021;-58
2021/08/26 04:59:55;;;;;;;12.70;3.30;;;16.30;99.90;;;;;;5032585;28;20031;-59
2021/08/26 05:02:21;;;;;;;13.90;3.80;;;16.20;99.90;;;;;;5032502;28;20022;-59
2021/08/26 05:04:47;;;;;;;16.08;4.50;;;16.20;99.90;;;;;;5032434;28;20022;-58
2021/08/26 05:07:12;;;;;;;13.13;4.32;;;16.20;99.90;;;;;;5032562;28;20044;-58
2021/08/26 05:09:38;;;;;;;14.27;4.30;;;16.30;99.90;;;;;;5032377;28;20032;-58
2021/08/26 05:12:06;;;;;;;15.75;4.57;;;16.30;99.90;;;;;;5032723;28;20068;-58
2021/08/26 05:14:31;;;;;;;11.15;4.50;;;16.30;99.90;;;;;;5032054;28;20025;-59
2021/08/26 05:16:58;;;;;;;15.95;4.50;;;16.30;99.90;;;;;;5032432;28;20374;-59
2021/08/26 05:19:27;;;;;;;16.13;4.63;;;16.40;99.90;;;;;;5032315;28;20029;-59
2021/08/26 05:21:53;;;;;;;13.25;4.30;;;16.50;99.90;;;;;;5032140;28;20025;-59
2021/08/26 05:24:18;;;;;;;15.75;4.18;;;16.50;99.90;;;;;;5032125;28;20021;-59
2021/08/26 05:26:44;;;;;;;16.52;4.03;;;16.50;99.90;;;;;;5032213;28;20109;-59
2021/08/26 05:29:10;;;;;;;19.25;4.57;;;16.50;99.90;;;;;;5032181;28;20043;-59
2021/08/26 05:31:36;;;;;;;15.88;4.28;;;16.50;99.90;;;;;;5032071;28;20100;-59
2021/08/26 05:34:01;;;;;;;13.50;4.53;;;16.50;99.90;;;;;;5032216;28;20029;-59
2021/08/26 05:36:27;;;;;;;15.27;4.45;;;16.40;99.90;;;;;;5031855;28;20124;-59
2021/08/26 05:38:53;;;;;;;11.88;4.20;;;16.40;99.90;;;;;;5031951;28;20359;-59
2021/08/26 05:41:18;;;;;;;14.63;4.53;;;16.40;99.90;;;;;;5031922;28;20040;-59
2021/08/26 05:43:44;;;;;;;13.18;4.20;;;16.50;99.90;;;;;;5031985;28;20462;-58
2021/08/26 05:46:10;;;;;;;15.68;4.97;;;16.50;99.90;;;;;;5031891;28;20163;-59
2021/08/26 05:48:36;;;;;;;18.15;5.05;;;16.50;99.90;;;;;;5031885;28;20029;-59
2021/08/26 05:51:02;;;;;;;13.77;4.95;;;16.50;99.90;;;;;;5030587;28;20025;-59
2021/08/26 05:53:27;;;;;;;14.20;4.25;;;16.50;99.90;;;;;;5030553;28;20025;-58
2021/08/26 05:55:53;;;;;;;17.58;5.32;;;16.50;99.90;;;;;;5031832;28;20034;-58
2021/08/26 05:58:19;;;;;;;15.60;5.38;;;16.60;99.90;;;;;;5030333;28;20554;-58
2021/08/26 06:00:44;;;;;;;15.27;4.55;;;16.70;99.90;;;;;;5031216;28;20466;-59
2021/08/26 06:03:10;;;;;;;16.25;4.63;;;16.60;99.90;;;;;;5031755;28;20041;-59
2021/08/26 06:05:36;;;;;;;14.15;4.90;;;16.60;99.90;;;;;;5031805;28;20060;-59
2021/08/26 06:08:01;;;;;;;22.23;5.22;;;16.70;99.90;;;;;;5031595;28;20088;-59
2021/08/26 06:10:27;;;;;;;15.55;4.95;;;16.80;99.90;;;;;;5030286;28;20378;-59
2021/08/26 06:12:52;;;;;;;15.93;5.07;;;16.80;99.90;;;;;;5031688;28;20025;-59
2021/08/26 06:15:18;;;;;;;23.20;4.70;;;16.90;99.90;;;;;;5030652;28;20061;-59
2021/08/26 06:17:44;;;;;;;17.45;5.05;;;17.00;99.90;;;;;;5031382;28;20029;-59
2021/08/26 06:20:13;;;;;;;14.77;4.78;;;17.00;99.90;;;;;;5031107;28;20385;-59
2021/08/26 06:22:40;;;;;;;21.90;4.82;;;17.00;99.90;;;;;;5031524;28;20052;-59
2021/08/26 06:25:06;;;;;;;21.02;5.40;;;16.90;99.90;;;;;;5030978;28;20022;-59
2021/08/26 06:27:32;;;;;;;18.23;5.30;;;17.00;99.90;;;;;;5031481;28;20040;-59
2021/08/26 06:29:58;;;;;;;18.38;5.18;;;17.10;99.90;;;;;;5030230;28;20033;-59
2021/08/26 06:32:24;;;;;;;18.05;4.93;;;17.20;99.90;;;;;;5029633;28;20042;-59
2021/08/26 06:34:50;;;;;;;17.88;5.05;;;17.10;99.90;;;;;;5031153;28;20033;-59
2021/08/26 06:37:16;;;;;;;16.80;5.22;;;17.20;99.90;;;;;;5030852;28;20517;-59
2021/08/26 06:39:41;;;;;;;16.88;4.88;;;17.20;99.90;;;;;;5028915;28;20152;-59
2021/08/26 06:42:07;;;;;;;18.25;5.13;;;17.40;99.90;;;;;;5030400;28;20025;-59
2021/08/26 06:44:33;;;;;;;23.52;5.03;;;17.40;99.90;;;;;;5030611;28;20032;-59
2021/08/26 06:46:58;;;;;;;14.57;4.55;;;17.50;99.90;;;;;;5030639;28;20044;-59
2021/08/26 06:49:24;;;;;;;15.32;5.05;;;17.60;99.90;;;;;;5030652;28;20382;-58
2021/08/26 06:51:50;;;;;;;18.48;4.72;;;17.60;99.90;;;;;;5031210;28;20485;-59
2021/08/26 06:54:16;;;;;;;16.70;5.30;;;17.70;99.90;;;;;;5028097;28;20034;-59
2021/08/26 06:56:41;;;;;;;14.40;4.43;;;17.70;99.90;;;;;;5031325;28;20135;-59
2021/08/26 06:59:07;;;;;;;19.15;5.03;;;17.70;99.90;;;;;;5031175;28;20021;-59
2021/08/26 07:01:33;;;;;;;17.73;5.22;;;17.60;99.90;;;;;;5031568;28;20060;-59
2021/08/26 07:03:58;;;;;;;23.50;5.38;;;17.60;99.90;;;;;;5031431;28;20025;-59
2021/08/26 07:06:25;;;;;;;14.30;4.07;;;17.70;99.90;;;;;;5031208;28;20033;-59
2021/08/26 07:08:51;;;;;;;16.90;4.25;;;17.60;99.90;;;;;;5030721;28;20439;-59
2021/08/26 07:11:17;;;;;;;17.10;4.68;;;17.50;99.90;;;;;;5030981;28;20036;-59
2021/08/26 07:13:43;;;;;;;15.75;4.93;;;17.60;99.90;;;;;;5031693;28;20390;-59
2021/08/26 07:16:08;;;;;;;15.88;4.50;;;17.60;99.90;;;;;;5034457;28;20037;-59
2021/08/26 07:18:34;;;;;;;13.45;4.80;;;17.70;99.90;;;;;;5034590;28;20418;-59
2021/08/26 07:21:00;;;;;;;18.02;4.57;;;17.90;99.90;;;;;;5034736;28;20036;-59
2021/08/26 07:23:25;;;;;;;17.90;4.50;;;18.00;99.90;;;;;;5034480;28;20022;-59
2021/08/26 07:25:51;;;;;;;12.90;4.15;;;18.20;99.90;;;;;;5034661;28;20045;-58
2021/08/26 07:28:17;;;;;;;13.60;3.97;;;18.30;99.90;;;;;;5033106;28;20036;-59
2021/08/26 07:30:42;;;;;;;16.05;4.68;;;18.50;99.90;;;;;;5034504;28;20458;-59
2021/08/26 07:33:08;;;;;;;12.80;3.75;;;18.50;99.90;;;;;;5032964;28;20021;-59
2021/08/26 07:35:34;;;;;;;12.65;3.90;;;18.50;99.90;;;;;;5031362;28;20061;-59
2021/08/26 07:38:00;;;;;;;15.88;4.30;;;18.40;99.90;;;;;;5034164;28;20056;-59
2021/08/26 07:40:26;;;;;;;18.08;3.70;;;18.60;99.90;;;;;;5034171;28;20022;-59
2021/08/26 07:42:51;;;;;;;13.32;3.90;;;18.80;99.90;;;;;;5032899;28;20112;-60
2021/08/26 07:45:17;;;;;;;11.55;3.38;;;18.90;99.90;;;;;;5034244;28;20109;-59
2021/08/26 07:47:43;;;;;;;10.93;3.42;;;19.00;99.90;;;;;;5034413;28;20396;-59
2021/08/26 07:50:09;;;;;;;17.40;4.10;;;19.30;99.90;;;;;;5034029;28;20033;-59
2021/08/26 07:52:35;;;;;;;9.60;3.05;;;19.50;99.90;;;;;;5033859;28;20021;-59
2021/08/26 07:55:02;;;;;;;14.32;3.78;;;19.50;99.90;;;;;;5034176;28;20040;-59
2021/08/26 07:57:29;;;;;;;13.60;3.53;;;19.70;99.90;;;;;;5033679;28;20065;-60
2021/08/26 07:59:55;;;;;;;11.48;3.20;;;19.80;99.90;;;;;;5033824;28;20021;-60
2021/08/26 08:02:20;;;;;;;10.98;3.63;;;19.80;99.90;;;;;;5033592;28;20029;-59
2021/08/26 08:04:46;;;;;;;15.25;3.75;;;19.60;99.90;;;;;;5032752;28;20029;-59
2021/08/26 08:07:12;;;;;;;10.75;3.50;;;19.60;99.90;;;;;;5033193;28;20450;-59
2021/08/26 08:09:37;;;;;;;16.15;4.18;;;19.30;99.90;;;;;;5028728;28;20474;-59
2021/08/26 08:12:03;;;;;;;15.20;4.13;;;19.30;99.90;;;;;;5028296;28;20025;-59
2021/08/26 08:14:29;;;;;;;14.27;3.83;;;19.60;99.90;;;;;;5027661;28;20040;-60
2021/08/26 08:16:55;;;;;;;12.65;3.35;;;19.90;99.90;;;;;;5033175;28;20076;-59
2021/08/26 08:19:22;;;;;;;12.95;3.67;;;19.70;99.90;;;;;;5029095;28;20021;-59
2021/08/26 08:21:47;;;;;;;16.08;3.60;;;19.40;99.90;;;;;;5013713;28;20387;-59
2021/08/26 08:24:13;;;;;;;13.52;3.85;;;19.40;99.90;;;;;;5023971;28;20017;-59
2021/08/26 08:26:39;;;;;;;13.95;3.92;;;19.40;99.90;;;;;;5028185;28;20113;-59
2021/08/26 08:29:04;;;;;;;12.95;3.85;;;19.50;99.90;;;;;;5027851;28;20119;-59
2021/08/26 08:31:30;;;;;;;14.35;4.18;;;19.40;99.90;;;;;;5021299;28;20025;-59
2021/08/26 08:33:56;;;;;;;12.93;3.85;;;19.60;99.90;;;;;;5017033;28;20037;-59
2021/08/26 08:36:21;;;;;;;14.23;3.55;;;19.90;99.90;;;;;;5029912;28;20049;-59
2021/08/26 08:38:48;;;;;;;17.17;3.70;;;20.00;99.90;;;;;;5030422;28;20037;-59
2021/08/26 08:41:17;;;;;;;16.25;3.90;;;20.00;99.90;;;;;;5016636;28;20048;-58
2021/08/26 08:43:42;;;;;;;13.98;4.05;;;19.70;99.90;;;;;;5024116;28;20026;-59
2021/08/26 08:46:09;;;;;;;13.90;4.10;;;19.60;99.90;;;;;;5020663;28;20480;-59
2021/08/26 08:48:38;;;;;;;19.83;4.70;;;19.40;99.90;;;;;;5025064;28;20049;-59
2021/08/26 08:51:04;;;;;;;13.30;3.85;;;19.30;99.90;;;;;;5021087;28;20068;-59
2021/08/26 08:53:30;;;;;;;15.82;4.55;;;19.10;99.90;;;;;;5027640;28;20065;-59
2021/08/26 08:55:57;;;;;;;15.27;3.33;;;18.70;99.90;;;;;;5032695;28;20028;-58
2021/08/26 08:58:22;;;;;;;14.32;3.42;;;18.40;99.90;;;;;;5021683;28;20030;-59
2021/08/26 09:00:48;;;;;;;10.45;3.45;;;18.20;99.90;;;;;;5015001;28;20403;-58
2021/08/26 09:03:14;;;;;;;12.27;3.15;;;18.00;99.90;;;;;;5029230;28;20022;-59
2021/08/26 09:05:55;;;;;;;11.73;2.97;;;18.00;99.90;;;;;;5013251;28;20022;-58
2021/08/26 09:08:26;;;;;;;10.15;3.28;;;18.00;99.90;;;;;;5031622;28;20048;-59
2021/08/26 09:10:55;;;;;;;12.00;3.65;;;18.00;99.90;;;;;;5030778;28;20034;-58
2021/08/26 09:13:31;;;;;;;12.77;3.30;;;18.00;99.90;;;;;;5032179;28;20112;-58
2021/08/26 09:15:57;;;;;;;13.75;3.13;;;17.90;99.90;;;;;;5030401;28;20103;-58
2021/08/26 09:18:23;;;;;;;10.27;2.97;;;17.90;99.90;;;;;;5031551;28;20022;-58
2021/08/26 09:20:52;;;;;;;13.90;3.00;;;17.70;99.90;;;;;;5021476;28;20026;-58
2021/08/26 09:23:19;;;;;;;10.93;3.38;;;17.70;99.90;;;;;;5029856;28;20017;-59
2021/08/26 09:25:45;;;;;;;12.73;3.42;;;17.70;99.90;;;;;;5030055;28;20017;-58
2021/08/26 09:28:25;;;;;;;7.28;3.03;;;17.90;99.90;;;;;;5028549;28;20055;-59
2021/08/26 09:31:08;;;;;;;29.20;4.25;;;18.30;99.90;;;;;;5031072;28;20026;-58
2021/08/26 09:33:49;;;;;;;11.98;3.25;;;18.70;99.90;;;;;;5017020;28;20033;-59
2021/08/26 09:36:36;;;;;;;14.70;2.70;;;19.00;99.90;;;;;;5031501;28;20045;-58
2021/08/26 09:39:07;;;;;;;11.20;2.83;;;19.40;99.90;;;;;;5031241;28;20163;-59
2021/08/26 09:41:39;;;;;;;8.00;2.60;;;19.70;99.90;;;;;;5016087;28;20364;-59
2021/08/26 09:44:29;;;;;;;9.70;3.10;;;19.70;99.90;;;;;;5024277;28;20041;-59
2021/08/26 09:46:58;;;;;;;13.93;3.10;;;19.60;99.90;;;;;;5025748;28;20498;-59
2021/08/26 09:49:26;;;;;;;7.53;2.55;;;19.60;99.90;;;;;;5031613;28;20534;-59
2021/08/26 09:52:10;;;;;;;11.35;2.63;;;19.10;99.90;;;;;;5030084;28;20021;-59
2021/08/26 09:54:43;;;;;;;9.70;3.03;;;19.10;99.90;;;;;;5011762;28;20026;-58
2021/08/26 09:57:27;;;;;;;10.20;2.63;;;19.20;99.90;;;;;;5024182;28;20028;-59
2021/08/26 09:59:55;;;;;;;7.70;2.50;;;19.30;99.90;;;;;;5031598;28;20029;-59
2021/08/26 10:02:21;;;;;;;9.40;2.65;;;19.50;99.90;;;;;;5031343;28;20436;-59
2021/08/26 10:04:48;;;;;;;9.65;2.90;;;19.50;99.90;;;;;;5030221;28;20116;-59
2021/08/26 10:07:16;;;;;;;8.35;2.60;;;19.70;99.90;;;;;;5030466;28;20032;-58
2021/08/26 10:09:42;;;;;;;6.93;2.50;;;19.80;99.90;;;;;;5030261;28;20026;-59
2021/08/26 10:12:13;;;;;;;10.20;2.67;;;19.60;99.90;;;;;;5029709;28;20029;-59
2021/08/26 10:14:44;;;;;;;9.65;2.80;;;19.50;99.90;;;;;;5019537;28;20022;-59
2021/08/26 10:17:10;;;;;;;12.45;2.30;;;19.70;99.90;;;;;;5030221;28;20075;-59
2021/08/26 10:19:37;;;;;;;14.00;2.42;;;19.60;99.90;;;;;;5031170;28;20024;-58
2021/08/26 10:22:04;;;;;;;7.53;2.50;;;19.60;99.90;;;;;;5048384;28;20036;-58
2021/08/26 10:24:30;;;;;;;10.57;2.35;;;19.40;99.90;;;;;;5032498;28;20492;-58
2021/08/26 10:27:08;;;;;;;10.45;2.45;;;19.40;99.90;;;;;;5030838;28;20104;-63
2021/08/26 10:29:35;;;;;;;9.95;2.42;;;19.10;99.90;;;;;;5030797;28;20025;-59
2021/08/26 10:32:03;;;;;;;10.93;2.05;;;18.90;99.90;;;;;;5026642;28;20028;-58
2021/08/26 10:34:31;;;;;;;12.00;2.30;;;18.70;99.90;;;;;;5031280;28;20053;-59
2021/08/26 10:36:57;;;;;;;7.10;2.00;;;18.70;99.90;;;;;;5021233;28;20408;-59
2021/08/26 10:39:31;;;;;;;6.38;2.03;;;18.80;99.90;;;;;;5012821;28;20025;-59
2021/08/26 10:42:38;;;;;;;13.48;2.10;;;18.90;99.90;;;;;;5017435;28;20030;-58
2021/08/26 10:45:04;;;;;;;11.52;2.78;;;19.10;99.90;;;;;;5014414;28;21051;-59
2021/08/26 10:47:47;;;;;;;7.55;2.25;;;19.10;99.90;;;;;;5022558;28;20103;-59
2021/08/26 10:50:24;;;;;;;6.10;2.40;;;19.10;99.90;;;;;;5022933;28;20033;-59
2021/08/26 10:53:09;;;;;;;8.55;2.70;;;19.30;99.90;;;;;;5037718;28;20037;-58
2021/08/26 10:55:55;;;;;;;6.70;2.38;;;19.30;99.90;;;;;;5028922;28;20199;-59
2021/08/26 10:58:23;;;;;;;10.23;2.85;;;19.20;99.90;;;;;;5025788;28;20030;-59
2021/08/26 11:01:00;;;;;;;7.75;2.30;;;19.60;99.90;;;;;;5022654;28;20054;-59
2021/08/26 11:03:35;;;;;;;9.70;2.80;;;20.20;99.90;;;;;;5029284;28;20026;-58
2021/08/26 11:06:02;;;;;;;6.28;2.70;;;21.10;99.90;;;;;;5028252;28;20373;-59
2021/08/26 11:08:33;;;;;;;7.68;2.70;;;21.30;99.90;;;;;;5027138;28;20440;-58
2021/08/26 11:11:33;;;;;;;14.30;3.08;;;21.10;99.90;;;;;;5026375;28;20148;-58
2021/08/26 11:14:02;;;;;;;8.48;2.53;;;20.60;99.90;;;;;;5028864;28;20036;-58
2021/08/26 11:16:27;;;;;;;11.05;2.80;;;20.10;99.90;;;;;;5029865;28;20035;-58
2021/08/26 11:18:58;;;;;;;7.63;2.45;;;20.50;99.90;;;;;;5066132;28;20044;-58
2021/08/26 11:21:46;;;;;;;11.02;3.17;;;20.40;99.90;;;;;;5028858;28;20079;-58
2021/08/26 11:24:19;;;;;;;12.02;3.70;;;20.30;99.90;;;;;;5033045;28;20124;-58
2021/08/26 11:27:16;;;;;;;10.95;2.65;;;20.30;99.90;;;;;;5023922;28;20117;-59
2021/08/26 11:29:42;;;;;;;6.50;2.00;;;20.40;99.90;;;;;;5024887;28;20053;-59
2021/08/26 11:32:11;;;;;;;7.22;2.67;;;20.10;99.90;;;;;;5036823;28;20451;-59
2021/08/26 11:34:38;;;;;;;5.25;2.13;;;19.80;99.90;;;;;;5026623;28;20052;-59
2021/08/26 11:37:15;;;;;;;8.05;2.05;;;19.80;99.90;;;;;;5035137;28;20064;-59
2021/08/26 11:40:01;;;;;;;7.80;2.33;;;20.30;99.90;;;;;;5031121;28;20533;-59
2021/08/26 11:42:29;;;;;;;8.52;2.15;;;20.70;99.90;;;;;;5025184;28;20025;-59
2021/08/26 11:45:15;;;;;;;7.47;2.30;;;21.00;99.90;;;;;;5016685;28;20025;-59
2021/08/26 11:47:47;;;;;;;7.95;2.15;;;21.50;99.90;;;;;;5014016;28;20033;-59
2021/08/26 11:50:22;;;;;;;7.53;1.98;;;21.40;99.90;;;;;;5024224;28;20021;-59
2021/08/26 11:52:54;;;;;;;11.65;2.50;;;21.20;99.90;;;;;;5015270;28;20029;-59
2021/08/26 11:55:22;;;;;;;9.60;2.47;;;20.70;99.90;;;;;;5029333;28;20386;-59
2021/08/26 11:57:56;;;;;;;9.02;2.58;;;20.30;99.90;;;;;;5030501;28;20030;-58
2021/08/26 12:00:23;;;;;;;9.35;2.50;;;19.90;99.90;;;;;;5026083;28;20053;-58
2021/08/26 12:02:57;;;;;;;9.63;2.45;;;19.90;99.90;;;;;;5027682;28;20053;-58
2021/08/26 12:05:24;;;;;;;11.73;2.83;;;20.30;99.90;;;;;;5027102;28;20080;-59
2021/08/26 12:07:51;;;;;;;8.43;2.47;;;20.80;99.90;;;;;;5031991;28;20033;-58
2021/08/26 12:10:26;;;;;;;10.18;2.20;;;21.20;99.90;;;;;;5029064;28;20116;-58
2021/08/26 12:13:07;;;;;;;6.95;1.70;;;21.10;99.90;;;;;;5023825;28;20053;-59
2021/08/26 12:15:34;;;;;;;5.57;1.50;;;20.60;99.90;;;;;;5027324;28;20025;-59
2021/08/26 12:18:08;;;;;;;7.53;1.05;;;20.20;99.90;;;;;;5013484;28;20025;-59
2021/08/26 12:20:36;;;;;;;4.40;1.10;;;19.70;99.90;;;;;;5026186;28;20038;-58
2021/08/26 12:23:03;;;;;;;4.80;1.45;;;19.50;99.90;;;;;;5025564;28;20049;-58
2021/08/26 12:25:36;;;;;;;2.95;1.10;;;19.50;99.90;;;;;;5028720;28;20422;-58
2021/08/26 12:28:05;;;;;;;3.83;1.10;;;19.50;99.90;;;;;;5031242;28;20044;-59
2021/08/26 12:30:34;;;;;;;5.22;0.90;;;19.80;99.90;;;;;;5029455;28;20104;-59
2021/08/26 12:33:10;;;;;;;2.78;0.98;;;20.00;99.90;;;;;;5029104;28;20036;-58
2021/08/26 12:35:43;;;;;;;2.75;0.93;;;20.00;99.90;;;;;;5029370;28;20037;-58
2021/08/26 12:38:11;;;;;;;4.68;1.30;;;20.60;99.90;;;;;;5026456;28;20083;-59
2021/08/26 12:40:51;;;;;;;6.07;1.23;;;21.00;99.90;;;;;;5028105;28;20025;-58
2021/08/26 12:43:16;;;;;;;4.82;1.27;;;21.70;99.90;;;;;;5030411;28;20394;-59
2021/08/26 12:45:42;;;;;;;9.13;1.92;;;22.90;99.90;;;;;;5035193;28;20025;-59
2021/08/26 12:48:27;;;;;;;8.65;1.60;;;23.60;99.90;;;;;;5025556;28;20092;-59